Sturdivant, Missouri
Current Conditions -  °F | °C
As of 1:18 AM on Sunday 26 Oct 2014 (Local Time) from KPOF Reporting Station
Moderate Fog Moderate Fog  
Wind Chill: 57°   Ceiling: 300
Heat Index: 57°   Visibility: 0.25mi
Dew Point: 55°   Wind: 0mph
Humidity: 93%   Direction: NA
Pressure: 29.98"   Gusts: NA
Location:  37.05°N, 90.01°W
Report Text: KPOF 260618Z AUTO 00000KT 1/4SM FG VV003 14/13 A2998 RMK AO2 T01390128
Loading
Personal Weather Stations






























Interactive Weather Map
Tropical Storm Tracking
New forecast layout! Learn more

10-Day Weather Forecast

Advertisements
Track Severe Weather on mobile